createdAt,value
2022-08-09T00:00:50.198Z,2.13
2022-08-09T00:02:27.285Z,2.15
2022-08-09T00:06:17.448Z,2.20
2022-08-09T00:07:47.589Z,2.20
2022-08-09T00:09:21.022Z,2.20
2022-08-09T00:10:54.075Z,2.25
2022-08-09T00:12:34.586Z,2.50
2022-08-09T00:14:08.223Z,2.30
2022-08-09T00:15:58.986Z,2.33
2022-08-09T00:18:05.442Z,2.20
2022-08-09T00:19:29.740Z,2.60
2022-08-09T00:21:09.072Z,2.30
2022-08-09T00:22:42.005Z,2.50
2022-08-09T00:24:18.093Z,2.40
2022-08-09T00:25:53.047Z,2.47
2022-08-09T00:29:01.771Z,2.50
2022-08-09T00:30:34.943Z,2.50
2022-08-09T00:32:08.130Z,2.55
2022-08-09T00:33:50.699Z,2.30
2022-08-09T00:35:26.227Z,2.03
2022-08-09T00:37:03.081Z,2.38
2022-08-09T00:38:36.773Z,2.25
2022-08-09T00:40:16.480Z,2.17
2022-08-09T00:44:14.250Z,2.40
2022-08-09T00:44:16.635Z,2.10
2022-08-09T00:45:36.653Z,2.33
2022-08-09T00:47:09.847Z,2.35
2022-08-09T00:48:49.520Z,2.10
2022-08-09T00:50:29.033Z,2.15
2022-08-09T00:52:05.325Z,2.00
2022-08-09T00:53:40.318Z,2.15
2022-08-09T00:55:32.837Z,2.17
2022-08-09T00:57:10.215Z,2.30
2022-08-09T00:58:44.145Z,2.10
2022-08-09T01:00:23.629Z,2.17
2022-08-09T01:01:58.423Z,2.35
2022-08-09T01:03:46.472Z,2.53
2022-08-09T01:05:51.807Z,2.45
2022-08-09T01:07:37.731Z,2.20
2022-08-09T01:09:20.824Z,2.50
2022-08-09T01:11:09.654Z,2.45
2022-08-09T01:12:57.326Z,2.28
2022-08-09T01:14:34.073Z,2.40
2022-08-09T01:16:08.201Z,2.33
2022-08-09T01:17:45.571Z,2.40
2022-08-09T01:19:40.293Z,2.38
2022-08-09T01:21:50.790Z,2.20
2022-08-09T01:24:03.633Z,2.20
2022-08-09T01:25:41.761Z,2.40
2022-08-09T01:27:18.341Z,2.37
2022-08-09T01:28:56.038Z,2.45
2022-08-09T01:30:35.448Z,2.40
2022-08-09T01:32:33.733Z,2.50
2022-08-09T01:34:10.085Z,2.15
2022-08-09T01:35:51.883Z,2.33
2022-08-09T01:38:05.510Z,2.40
2022-08-09T01:39:23.340Z,2.20
2022-08-09T01:41:03.045Z,2.60
2022-08-09T01:42:40.897Z,2.58
2022-08-09T01:44:17.503Z,2.38
2022-08-09T01:45:53.737Z,2.30
2022-08-09T01:47:32.636Z,2.70
2022-08-09T01:49:20.993Z,2.30
2022-08-09T01:50:58.414Z,2.70
2022-08-09T01:52:33.786Z,2.20
2022-08-09T01:54:08.369Z,2.40
2022-08-09T01:55:42.631Z,2.47
2022-08-09T01:57:20.334Z,2.30
2022-08-09T01:58:56.617Z,2.47
2022-08-09T02:00:35.713Z,2.75
2022-08-09T02:02:11.639Z,2.25
2022-08-09T02:03:48.297Z,2.20
2022-08-09T02:05:38.145Z,2.30
2022-08-09T02:08:39.105Z,2.40
2022-08-09T02:09:15.878Z,2.50
2022-08-09T02:10:53.445Z,2.35
2022-08-09T02:12:29.144Z,2.63
2022-08-09T02:14:08.052Z,2.53
2022-08-09T02:15:49.198Z,2.42
2022-08-09T02:17:59.499Z,2.50
2022-08-09T02:19:19.624Z,2.63
2022-08-09T02:20:57.281Z,2.50
2022-08-09T02:22:38.119Z,2.45
2022-08-09T02:24:26.337Z,2.30
2022-08-09T02:26:02.307Z,2.42
2022-08-09T02:27:57.380Z,2.55
2022-08-09T02:29:35.212Z,2.75
2022-08-09T02:31:13.234Z,2.40
2022-08-09T02:32:49.364Z,2.38
2022-08-09T02:34:41.712Z,2.20
2022-08-09T02:36:32.308Z,2.55
2022-08-09T02:38:09.255Z,2.60
2022-08-09T02:40:01.704Z,2.60
2022-08-09T02:41:42.606Z,2.75
2022-08-09T02:43:17.544Z,2.90
2022-08-09T02:45:00.461Z,2.70
2022-08-09T02:46:37.362Z,2.42
2022-08-09T02:48:30.817Z,2.40
2022-08-09T02:50:13.485Z,2.58
2022-08-09T02:51:51.157Z,2.35
2022-08-09T02:53:28.942Z,2.60
2022-08-09T02:55:19.920Z,2.40
2022-08-09T02:56:57.014Z,2.70
2022-08-09T02:58:36.729Z,2.60
2022-08-09T03:00:25.436Z,2.92
2022-08-09T03:02:07.086Z,2.78
2022-08-09T03:04:17.774Z,2.78
2022-08-09T03:05:48.031Z,2.80
2022-08-09T03:07:30.237Z,2.97
2022-08-09T03:09:05.130Z,2.75
2022-08-09T03:10:40.141Z,2.58
2022-08-09T03:12:18.933Z,2.50
2022-08-09T03:14:01.455Z,2.83
2022-08-09T03:15:40.505Z,2.15
2022-08-09T03:17:30.544Z,2.70
2022-08-09T03:19:04.314Z,2.50
2022-08-09T03:20:48.758Z,2.47
2022-08-09T03:22:30.465Z,3.00
2022-08-09T03:24:05.250Z,2.80
2022-08-09T03:25:58.062Z,3.00
2022-08-09T03:27:37.430Z,2.65
2022-08-09T03:29:22.584Z,3.00
2022-08-09T03:30:58.084Z,2.60
2022-08-09T03:32:32.901Z,3.00
2022-08-09T03:34:11.383Z,2.42
2022-08-09T03:36:13.380Z,3.08
2022-08-09T03:37:54.671Z,2.70
2022-08-09T03:39:37.971Z,3.17
2022-08-09T03:41:15.215Z,2.83
2022-08-09T03:42:48.998Z,3.30
2022-08-09T03:44:22.717Z,2.90
2022-08-09T03:46:20.215Z,3.00
2022-08-09T03:48:02.624Z,2.90
2022-08-09T03:49:36.433Z,3.17
2022-08-09T03:51:55.339Z,3.30
2022-08-09T03:53:05.892Z,3.38
2022-08-09T03:54:46.041Z,3.50
2022-08-09T03:56:23.509Z,3.30
2022-08-09T03:58:06.502Z,3.25
2022-08-09T03:59:53.214Z,4.03
2022-08-09T04:01:32.126Z,3.65
2022-08-09T04:03:06.765Z,3.42
2022-08-09T04:04:39.203Z,3.47
2022-08-09T04:06:15.149Z,3.67
2022-08-09T04:07:56.448Z,3.80
2022-08-09T04:09:41.955Z,3.65
2022-08-09T04:11:24.271Z,3.13
2022-08-09T04:13:01.259Z,3.88
2022-08-09T04:15:00.350Z,3.90
2022-08-09T04:16:36.337Z,3.45
2022-08-09T04:18:08.871Z,3.00
2022-08-09T04:19:51.417Z,3.60
2022-08-09T04:21:31.453Z,3.05
2022-08-09T04:23:17.388Z,2.80
2022-08-09T04:24:55.077Z,2.88
2022-08-09T04:26:38.192Z,3.08
2022-08-09T04:28:12.482Z,3.17
2022-08-09T04:29:49.819Z,2.65
2022-08-09T04:31:23.440Z,3.10
2022-08-09T04:33:01.350Z,2.70
2022-08-09T04:34:34.815Z,2.95
2022-08-09T04:36:07.582Z,2.70
2022-08-09T04:37:45.226Z,3.05
2022-08-09T04:39:19.785Z,2.70
2022-08-09T04:40:54.365Z,2.95
2022-08-09T04:42:31.591Z,2.90
2022-08-09T04:44:12.019Z,2.85
2022-08-09T04:45:53.954Z,3.00
2022-08-09T04:47:28.383Z,3.22
2022-08-09T04:49:30.526Z,3.47
2022-08-09T04:51:13.631Z,3.97
2022-08-09T04:52:49.597Z,3.40
2022-08-09T04:54:21.606Z,3.40
2022-08-09T04:55:58.645Z,3.30
2022-08-09T04:57:58.854Z,2.70
2022-08-09T04:59:26.290Z,3.10
2022-08-09T05:01:04.593Z,2.72
2022-08-09T05:02:52.721Z,2.92
2022-08-09T05:04:31.042Z,2.85
2022-08-09T05:06:07.670Z,3.10
2022-08-09T05:07:40.725Z,2.83
2022-08-09T05:09:19.721Z,3.10
2022-08-09T05:10:52.987Z,2.75
2022-08-09T05:12:26.301Z,2.50
2022-08-09T05:15:39.380Z,2.55
2022-08-09T05:18:39.794Z,2.60
2022-08-09T05:19:15.932Z,2.53
2022-08-09T05:20:54.031Z,2.67
2022-08-09T05:23:53.670Z,2.90
2022-08-09T05:24:20.316Z,2.70
2022-08-09T05:25:57.235Z,2.55
2022-08-09T05:27:31.304Z,3.03
2022-08-09T05:29:04.428Z,2.80
2022-08-09T05:30:37.462Z,2.53
2022-08-09T05:32:14.981Z,2.60
2022-08-09T05:33:48.782Z,3.30
2022-08-09T05:35:22.458Z,2.60
2022-08-09T05:36:57.480Z,2.70
2022-08-09T05:38:30.605Z,2.50
2022-08-09T05:40:06.020Z,2.58
2022-08-09T05:41:39.202Z,2.80
2022-08-09T05:43:13.486Z,2.78
2022-08-09T05:44:51.763Z,2.90
2022-08-09T05:46:25.066Z,2.92
2022-08-09T05:48:01.181Z,2.90
2022-08-09T05:50:25.156Z,2.72
2022-08-09T05:51:42.446Z,3.08
2022-08-09T05:53:21.635Z,2.75
2022-08-09T05:55:07.127Z,2.60
2022-08-09T05:56:55.014Z,2.60
2022-08-09T05:58:28.898Z,2.50
2022-08-09T06:00:01.963Z,2.38
2022-08-09T06:03:19.802Z,2.50
2022-08-09T06:04:53.727Z,2.38
2022-08-09T06:06:28.960Z,2.42
2022-08-09T06:08:11.016Z,2.70
2022-08-09T06:10:01.338Z,2.55
2022-08-09T06:11:41.157Z,2.50
2022-08-09T06:13:33.920Z,2.38
2022-08-09T06:15:10.169Z,2.30
2022-08-09T06:16:43.516Z,2.50
2022-08-09T06:18:26.005Z,2.45
2022-08-09T06:19:59.110Z,2.63
2022-08-09T06:21:32.496Z,2.50
2022-08-09T06:23:05.503Z,2.92
2022-08-09T06:24:38.503Z,2.47
2022-08-09T06:26:15.004Z,2.83
2022-08-09T06:27:53.695Z,2.40
2022-08-09T06:29:27.154Z,2.42
2022-08-09T06:31:00.458Z,3.38
2022-08-09T06:34:29.865Z,2.40
2022-08-09T06:36:03.939Z,2.35
2022-08-09T06:37:52.817Z,2.50
2022-08-09T06:39:48.721Z,2.47
2022-08-09T06:42:09.434Z,2.05
2022-08-09T06:43:22.034Z,2.55
2022-08-09T06:44:55.558Z,2.50
2022-08-09T06:46:39.799Z,2.60
2022-08-09T06:50:14.128Z,2.47
2022-08-09T06:51:52.220Z,2.30
2022-08-09T06:53:26.089Z,2.40
2022-08-09T06:56:33.434Z,2.40
2022-08-09T06:58:09.104Z,2.15
2022-08-09T07:00:57.038Z,2.30
2022-08-09T07:01:59.447Z,2.17
2022-08-09T07:03:39.589Z,2.22
2022-08-09T07:06:03.149Z,2.20
2022-08-09T07:07:59.571Z,2.43
2022-08-09T07:09:54.955Z,2.47
2022-08-09T07:12:08.049Z,2.50
2022-08-09T07:14:51.387Z,2.75
2022-08-09T07:17:04.548Z,2.20
2022-08-09T07:19:07.840Z,2.17
2022-08-09T07:20:48.054Z,2.33
2022-08-09T07:22:47.451Z,2.30
2022-08-09T07:24:40.120Z,2.40
2022-08-09T07:26:37.855Z,2.30
2022-08-09T07:29:01.342Z,2.10
2022-08-09T07:30:40.585Z,2.08
2022-08-09T07:32:23.710Z,2.35
2022-08-09T07:34:28.483Z,2.15
2022-08-09T07:36:03.048Z,2.10
2022-08-09T07:37:45.625Z,2.38
2022-08-09T07:39:40.405Z,2.10
2022-08-09T07:41:14.593Z,2.20
2022-08-09T07:42:56.386Z,2.08
2022-08-09T07:44:50.644Z,2.00
2022-08-09T07:46:43.366Z,2.05
2022-08-09T07:48:30.697Z,2.00
2022-08-09T07:52:02.833Z,2.20
2022-08-09T07:53:03.085Z,2.40
2022-08-09T07:54:38.548Z,1.98
2022-08-09T07:56:26.997Z,2.33
2022-08-09T07:58:00.887Z,2.00
2022-08-09T07:59:51.046Z,1.95
2022-08-09T08:01:34.077Z,2.10
2022-08-09T08:03:08.666Z,2.05
2022-08-09T08:04:48.595Z,2.00
2022-08-09T08:06:22.333Z,1.90
2022-08-09T08:09:01.457Z,1.90
2022-08-09T08:10:07.861Z,1.80
2022-08-09T08:12:24.595Z,1.83
2022-08-09T08:13:38.210Z,1.85
2022-08-09T08:15:23.061Z,2.10
2022-08-09T08:17:01.101Z,1.90
2022-08-09T08:20:28.597Z,1.60
2022-08-09T08:22:03.885Z,1.92
2022-08-09T08:23:40.878Z,1.77
2022-08-09T08:25:15.599Z,1.70
2022-08-09T08:26:56.254Z,1.70
2022-08-09T08:28:32.767Z,1.58
2022-08-09T08:30:07.476Z,1.60
2022-08-09T08:32:03.795Z,1.73
2022-08-09T08:33:49.628Z,1.70
2022-08-09T08:35:53.194Z,1.90
2022-08-09T08:37:21.909Z,1.60
2022-08-09T08:38:58.743Z,1.80
2022-08-09T08:40:36.901Z,1.60
2022-08-09T08:42:09.401Z,1.65
2022-08-09T08:43:42.621Z,1.90
2022-08-09T08:45:17.802Z,1.70
2022-08-09T08:47:15.679Z,1.90
2022-08-09T08:48:53.416Z,1.90
2022-08-09T08:50:27.677Z,1.85
2022-08-09T08:52:04.055Z,1.70
2022-08-09T08:53:39.390Z,1.90
2022-08-09T08:55:32.680Z,1.90
2022-08-09T08:57:11.595Z,1.92
2022-08-09T08:58:46.506Z,1.92
2022-08-09T09:00:27.827Z,2.10
2022-08-09T09:02:07.228Z,2.33
2022-08-09T09:03:44.828Z,2.00
2022-08-09T09:05:57.491Z,2.50
2022-08-09T09:07:19.655Z,2.10
2022-08-09T09:08:59.709Z,1.65
2022-08-09T09:10:36.007Z,2.38
2022-08-09T09:12:16.515Z,2.20
2022-08-09T09:13:57.146Z,2.20
2022-08-09T09:15:31.491Z,2.38
2022-08-09T09:17:06.664Z,2.05
2022-08-09T09:18:51.896Z,2.67
2022-08-09T09:20:36.133Z,2.10
2022-08-09T09:22:12.507Z,2.10
2022-08-09T09:23:49.858Z,2.30
2022-08-09T09:26:03.468Z,2.10
2022-08-09T09:28:04.451Z,1.90
2022-08-09T09:29:41.015Z,2.10
2022-08-09T09:32:06.893Z,2.50
2022-08-09T09:33:18.143Z,2.00
2022-08-09T09:35:07.668Z,2.50
2022-08-09T09:36:51.231Z,3.10
2022-08-09T09:38:44.520Z,2.22
2022-08-09T09:40:18.029Z,2.20
2022-08-09T09:41:51.847Z,2.28
2022-08-09T09:43:25.956Z,2.03
2022-08-09T09:45:00.827Z,2.40
2022-08-09T09:46:42.223Z,2.40
2022-08-09T09:48:16.602Z,2.20
2022-08-09T09:50:13.886Z,2.47
2022-08-09T09:51:47.871Z,2.50
2022-08-09T09:53:43.767Z,2.15
2022-08-09T09:55:27.987Z,2.20
2022-08-09T09:58:02.901Z,2.47
2022-08-09T09:59:09.915Z,2.28
2022-08-09T10:00:54.185Z,2.30
2022-08-09T10:02:29.476Z,2.50
2022-08-09T10:04:09.553Z,2.30
2022-08-09T10:06:07.254Z,2.50
2022-08-09T10:08:01.084Z,2.45
2022-08-09T10:09:49.059Z,2.40
2022-08-09T10:11:59.138Z,2.53
2022-08-09T10:13:24.673Z,2.67
2022-08-09T10:15:50.760Z,2.50
2022-08-09T10:17:39.150Z,2.50
2022-08-09T10:19:07.943Z,2.50
2022-08-09T10:20:45.326Z,2.58
2022-08-09T10:22:19.023Z,2.22
2022-08-09T10:24:06.825Z,2.60
2022-08-09T10:26:06.651Z,2.40
2022-08-09T10:27:45.133Z,2.30
2022-08-09T10:30:34.162Z,2.25
2022-08-09T10:32:37.347Z,2.30
2022-08-09T10:34:08.869Z,2.20
2022-08-09T10:35:13.255Z,2.30
2022-08-09T10:36:46.777Z,2.20
2022-08-09T10:38:43.272Z,2.45
2022-08-09T10:40:34.724Z,2.10
2022-08-09T10:42:09.974Z,2.40
2022-08-09T10:43:59.864Z,2.10
2022-08-09T10:45:35.500Z,2.42
2022-08-09T10:48:26.218Z,2.38
2022-08-09T10:49:49.862Z,2.40
2022-08-09T10:51:41.097Z,2.30
2022-08-09T10:53:23.957Z,2.08
2022-08-09T10:55:02.834Z,2.30
2022-08-09T10:56:38.788Z,2.15
2022-08-09T10:58:30.842Z,2.13
2022-08-09T11:01:10.631Z,2.10
2022-08-09T11:03:15.455Z,2.13
2022-08-09T11:04:34.909Z,2.30
2022-08-09T11:06:19.245Z,2.38
2022-08-09T11:07:57.062Z,1.90
2022-08-09T11:09:50.675Z,2.22
2022-08-09T11:11:25.594Z,2.22
2022-08-09T11:13:49.388Z,2.20
2022-08-09T11:15:31.638Z,2.03
2022-08-09T11:17:56.880Z,2.17
2022-08-09T11:20:12.109Z,2.20
2022-08-09T11:22:18.742Z,2.20
2022-08-09T11:24:04.081Z,2.25
2022-08-09T11:25:47.473Z,2.10
2022-08-09T11:28:02.507Z,2.17
2022-08-09T11:30:05.605Z,2.38
2022-08-09T11:31:52.999Z,1.83
2022-08-09T11:33:43.214Z,2.10
2022-08-09T11:35:25.034Z,1.80
2022-08-09T11:37:18.392Z,2.10
2022-08-09T11:40:34.960Z,2.10
2022-08-09T11:42:14.935Z,1.90
2022-08-09T11:43:51.654Z,2.00
2022-08-09T11:45:42.496Z,2.08
2022-08-09T11:47:17.150Z,2.10
2022-08-09T11:48:52.211Z,1.90
2022-08-09T11:51:19.539Z,1.90
2022-08-09T11:52:59.035Z,1.80
2022-08-09T11:54:28.152Z,2.00
2022-08-09T11:56:34.522Z,1.80
2022-08-09T11:58:48.076Z,2.00
2022-08-09T12:00:27.780Z,1.63
2022-08-09T12:02:34.657Z,1.80
2022-08-09T12:04:00.574Z,1.88
2022-08-09T12:05:42.308Z,2.13
2022-08-09T12:07:20.537Z,2.05
2022-08-09T12:08:56.372Z,2.10
2022-08-09T12:10:39.340Z,2.20
2022-08-09T12:12:31.793Z,1.97
2022-08-09T12:14:36.528Z,2.40
2022-08-09T12:16:05.319Z,2.20
2022-08-09T12:17:54.274Z,2.10
2022-08-09T12:19:32.109Z,2.10
2022-08-09T12:21:26.448Z,1.90
2022-08-09T12:23:03.755Z,2.20
2022-08-09T12:24:37.942Z,1.90
2022-08-09T12:26:12.751Z,2.13
2022-08-09T12:29:10.642Z,2.00
2022-08-09T12:30:36.534Z,2.10
2022-08-09T12:32:04.712Z,1.70
2022-08-09T12:33:59.237Z,2.10
2022-08-09T12:35:37.987Z,2.05
2022-08-09T12:37:23.751Z,1.98
2022-08-09T12:38:58.172Z,2.00
2022-08-09T12:40:31.643Z,1.95
2022-08-09T12:42:08.692Z,1.98
2022-08-09T12:44:05.311Z,1.90
2022-08-09T12:45:38.330Z,2.05
2022-08-09T12:47:12.552Z,1.92
2022-08-09T12:48:50.183Z,2.10
2022-08-09T12:50:25.112Z,1.98
2022-08-09T12:52:00.644Z,1.90
2022-08-09T12:53:41.256Z,2.00
2022-08-09T12:56:14.121Z,1.88
2022-08-09T12:57:38.701Z,2.00
2022-08-09T12:59:14.458Z,1.90
2022-08-09T13:00:49.883Z,1.90
2022-08-09T13:02:23.002Z,2.10
2022-08-09T13:05:51.113Z,1.90
2022-08-09T13:07:50.605Z,1.80
2022-08-09T13:09:27.021Z,1.70
2022-08-09T13:11:13.071Z,2.00
2022-08-09T13:13:09.152Z,1.70
2022-08-09T13:14:48.886Z,1.98
2022-08-09T13:16:38.621Z,1.88
2022-08-09T13:18:17.993Z,1.98
2022-08-09T13:20:08.527Z,1.90
2022-08-09T13:23:00.687Z,1.80
2022-08-09T13:24:16.135Z,2.20
2022-08-09T13:25:42.360Z,2.58
2022-08-09T13:27:28.989Z,2.03
2022-08-09T13:29:07.596Z,1.98
2022-08-09T13:32:13.436Z,2.10
2022-08-09T13:32:48.575Z,2.05
2022-08-09T13:34:21.816Z,1.92
2022-08-09T13:36:39.705Z,1.95
2022-08-09T13:37:52.964Z,1.83
2022-08-09T13:41:20.919Z,1.88
2022-08-09T13:41:58.728Z,1.80
2022-08-09T13:43:15.968Z,2.15
2022-08-09T13:44:52.028Z,1.80
2022-08-09T13:47:16.398Z,1.80
2022-08-09T13:48:18.233Z,1.98
2022-08-09T13:49:58.169Z,1.73
2022-08-09T13:51:35.538Z,2.00
2022-08-09T13:53:09.155Z,1.73
2022-08-09T13:55:00.043Z,2.45
2022-08-09T13:56:35.253Z,2.10
2022-08-09T13:58:13.818Z,2.10
2022-08-09T13:59:46.955Z,2.00
2022-08-09T14:01:56.678Z,2.03
2022-08-09T14:04:02.403Z,1.80
2022-08-09T14:05:07.251Z,2.00
2022-08-09T14:06:46.717Z,2.00
2022-08-09T14:08:20.816Z,2.40
2022-08-09T14:09:54.298Z,2.50
2022-08-09T14:11:28.536Z,2.00
2022-08-09T14:13:01.640Z,2.28
2022-08-09T14:14:36.180Z,1.90
2022-08-09T14:16:11.280Z,1.98
2022-08-09T14:18:06.833Z,1.98
2022-08-09T14:19:41.948Z,2.00
2022-08-09T14:21:18.303Z,2.50
2022-08-09T14:22:52.909Z,2.00
2022-08-09T14:24:32.057Z,2.63
2022-08-09T14:26:06.670Z,2.10
2022-08-09T14:27:58.467Z,2.10
2022-08-09T14:30:34.646Z,2.60
2022-08-09T14:31:36.426Z,2.20
2022-08-09T14:33:20.703Z,1.90
2022-08-09T14:34:55.400Z,2.08
2022-08-09T14:36:35.299Z,2.05
2022-08-09T14:38:14.437Z,2.10
2022-08-09T14:39:48.962Z,2.45
2022-08-09T14:41:39.558Z,2.03
2022-08-09T14:43:15.949Z,2.30
2022-08-09T14:44:59.377Z,2.00
2022-08-09T14:46:59.033Z,1.95
2022-08-09T14:48:26.924Z,2.13
2022-08-09T14:50:01.924Z,2.40
2022-08-09T14:51:42.452Z,1.92
2022-08-09T14:53:17.746Z,2.20
2022-08-09T14:54:51.395Z,2.20
2022-08-09T14:56:26.666Z,2.35
2022-08-09T14:58:00.338Z,2.22
2022-08-09T14:59:39.333Z,2.10
2022-08-09T15:01:12.922Z,3.22
2022-08-09T15:02:47.129Z,2.30
2022-08-09T15:04:23.596Z,2.00
2022-08-09T15:06:01.550Z,1.90
2022-08-09T15:07:37.185Z,2.10
2022-08-09T15:09:11.932Z,2.10
2022-08-09T15:11:00.513Z,2.45
2022-08-09T15:12:35.323Z,2.50
2022-08-09T15:14:13.129Z,2.75
2022-08-09T15:15:46.754Z,2.30
2022-08-09T15:17:19.896Z,2.20
2022-08-09T15:18:53.036Z,2.00
2022-08-09T15:21:56.065Z,2.00
2022-08-09T15:22:21.999Z,2.30
2022-08-09T15:24:09.218Z,2.15
2022-08-09T15:25:47.430Z,2.42
2022-08-09T15:27:20.905Z,2.40
2022-08-09T15:28:55.105Z,2.50
2022-08-09T15:30:56.407Z,2.40
2022-08-09T15:32:29.369Z,2.50
2022-08-09T15:34:32.869Z,2.30
2022-08-09T15:36:01.597Z,2.00
2022-08-09T15:37:56.723Z,2.20
2022-08-09T15:39:43.678Z,2.10
2022-08-09T15:43:05.854Z,3.28
2022-08-09T15:44:39.364Z,2.58
2022-08-09T15:46:28.075Z,2.33
2022-08-09T15:48:28.457Z,2.10
2022-08-09T15:50:04.689Z,2.38
2022-08-09T15:52:02.727Z,2.42
2022-08-09T15:54:07.963Z,2.35
2022-08-09T15:55:26.151Z,2.20
2022-08-09T15:57:02.789Z,2.42
2022-08-09T15:58:41.058Z,2.40
2022-08-09T16:00:26.243Z,2.70
2022-08-09T16:02:00.135Z,2.33
2022-08-09T16:03:38.634Z,2.15
2022-08-09T16:05:15.156Z,2.10
2022-08-09T16:06:50.289Z,2.10
2022-08-09T16:08:30.535Z,2.20
2022-08-09T16:10:17.044Z,2.40
2022-08-09T16:12:03.182Z,1.90
2022-08-09T16:14:05.097Z,2.35
2022-08-09T16:16:10.077Z,2.13
2022-08-09T16:19:02.845Z,1.90
2022-08-09T16:20:37.004Z,2.10
2022-08-09T16:22:15.586Z,2.33
2022-08-09T16:23:54.790Z,2.50
2022-08-09T16:25:30.688Z,2.20
2022-08-09T16:27:14.748Z,2.53
2022-08-09T16:28:48.953Z,2.45
2022-08-09T16:30:28.467Z,2.50
2022-08-09T16:32:18.561Z,2.63
2022-08-09T16:33:56.779Z,2.83
2022-08-09T16:35:55.868Z,2.30
2022-08-09T16:37:55.904Z,2.65
2022-08-09T16:39:25.787Z,2.42
2022-08-09T16:41:04.035Z,3.08
2022-08-09T16:42:45.355Z,2.58
2022-08-09T16:44:19.214Z,2.60
2022-08-09T16:45:55.369Z,2.80
2022-08-09T16:48:41.089Z,2.60
2022-08-09T16:50:29.686Z,2.90
2022-08-09T16:51:16.657Z,3.00
2022-08-09T16:52:50.950Z,2.88
2022-08-09T16:54:33.992Z,3.38
2022-08-09T16:58:10.016Z,2.72
2022-08-09T16:59:43.851Z,2.40
2022-08-09T17:01:24.609Z,3.10
2022-08-09T17:02:58.226Z,2.50
2022-08-09T17:04:31.717Z,3.00
2022-08-09T17:06:29.276Z,2.50
2022-08-09T17:08:44.906Z,2.13
2022-08-09T17:09:53.793Z,2.80
2022-08-09T17:11:40.521Z,2.30
2022-08-09T17:13:17.280Z,2.60
2022-08-09T17:14:57.660Z,2.67
2022-08-09T17:16:31.728Z,2.45
2022-08-09T17:18:11.836Z,2.63
2022-08-09T17:20:32.573Z,2.88
2022-08-09T17:21:46.606Z,2.95
2022-08-09T17:24:20.911Z,2.85
2022-08-09T17:25:19.576Z,3.08
2022-08-09T17:26:53.295Z,3.40
2022-08-09T17:28:28.582Z,3.42
2022-08-09T17:30:04.821Z,4.88
2022-08-09T17:31:40.592Z,3.60
2022-08-09T17:33:21.937Z,3.67
2022-08-09T17:35:07.583Z,3.83
2022-08-09T17:36:53.175Z,3.55
2022-08-09T17:38:30.519Z,3.65
2022-08-09T17:40:17.067Z,3.60
2022-08-09T17:41:52.181Z,3.55
2022-08-09T17:43:33.976Z,3.60
2022-08-09T17:45:15.930Z,3.67
2022-08-09T17:47:00.348Z,3.10
2022-08-09T17:48:39.773Z,3.50
2022-08-09T17:50:17.257Z,3.60
2022-08-09T17:52:07.736Z,3.22
2022-08-09T17:53:56.385Z,3.88
2022-08-09T17:55:34.489Z,3.17
2022-08-09T17:58:03.331Z,3.38
2022-08-09T17:59:17.708Z,3.00
2022-08-09T18:00:55.025Z,2.83
2022-08-09T18:02:33.523Z,2.75
2022-08-09T18:04:07.282Z,2.83
2022-08-09T18:05:43.880Z,2.80
2022-08-09T18:07:23.397Z,2.80
2022-08-09T18:09:00.368Z,2.50
2022-08-09T18:10:33.959Z,2.75
2022-08-09T18:12:17.885Z,2.83
2022-08-09T18:13:58.908Z,2.65
2022-08-09T18:16:05.409Z,2.38
2022-08-09T18:18:02.363Z,2.90
2022-08-09T18:20:55.624Z,2.72
2022-08-09T18:22:57.542Z,2.55
2022-08-09T18:24:38.574Z,2.55
2022-08-09T18:26:12.635Z,2.72
2022-08-09T18:28:03.570Z,2.45
2022-08-09T18:30:41.058Z,2.65
2022-08-09T18:31:55.243Z,2.88
2022-08-09T18:33:28.422Z,3.00
2022-08-09T18:35:01.746Z,2.30
2022-08-09T18:36:36.395Z,2.67
2022-08-09T18:38:09.683Z,2.70
2022-08-09T18:39:48.510Z,2.58
2022-08-09T18:41:22.675Z,5.55
2022-08-09T18:43:00.998Z,3.75
2022-08-09T18:44:36.005Z,2.90
2022-08-09T18:46:47.090Z,2.40
2022-08-09T18:48:04.347Z,2.50
2022-08-09T18:49:41.637Z,2.70
2022-08-09T18:51:20.083Z,2.40
2022-08-09T18:53:13.602Z,2.40
2022-08-09T18:54:53.279Z,2.30
2022-08-09T18:56:27.111Z,2.30
2022-08-09T18:58:01.545Z,2.60
2022-08-09T18:59:49.167Z,2.45
2022-08-09T19:01:25.947Z,2.40
2022-08-09T19:02:59.361Z,2.97
2022-08-09T19:04:35.445Z,2.30
2022-08-09T19:06:14.686Z,2.60
2022-08-09T19:08:03.919Z,2.88
2022-08-09T19:10:14.021Z,2.50
2022-08-09T19:11:39.531Z,2.65
2022-08-09T19:13:20.027Z,2.45
2022-08-09T19:14:57.312Z,3.00
2022-08-09T19:16:36.343Z,2.67
2022-08-09T19:18:17.291Z,2.40
2022-08-09T19:20:08.900Z,2.50
2022-08-09T19:21:52.400Z,2.58
2022-08-09T19:24:33.642Z,2.90
2022-08-09T19:26:01.240Z,2.60
2022-08-09T19:27:23.368Z,2.50
2022-08-09T19:29:01.638Z,2.30
2022-08-09T19:30:35.515Z,2.83
2022-08-09T19:32:09.881Z,2.47
2022-08-09T19:33:43.191Z,2.35
2022-08-09T19:35:17.960Z,7.38
2022-08-09T19:36:51.865Z,3.38
2022-08-09T19:38:24.911Z,3.03
2022-08-09T19:41:38.762Z,2.70
2022-08-09T19:43:57.747Z,2.75
2022-08-09T19:45:09.780Z,2.67
2022-08-09T19:46:50.068Z,2.47
2022-08-09T19:49:01.952Z,2.58
2022-08-09T19:50:50.144Z,2.53
2022-08-09T19:52:12.351Z,2.45
2022-08-09T19:53:48.038Z,2.65
2022-08-09T19:55:30.742Z,2.72
2022-08-09T19:57:16.279Z,2.60
2022-08-09T19:58:56.465Z,2.63
2022-08-09T20:00:45.317Z,2.90
2022-08-09T20:04:07.140Z,3.00
2022-08-09T20:04:21.170Z,2.95
2022-08-09T20:06:10.428Z,2.95
2022-08-09T20:08:00.549Z,2.95
2022-08-09T20:09:44.551Z,2.55
2022-08-09T20:11:19.158Z,2.65
2022-08-09T20:12:54.876Z,2.72
2022-08-09T20:14:28.326Z,2.67
2022-08-09T20:16:32.801Z,2.75
2022-08-09T20:17:59.090Z,3.88
2022-08-09T20:19:47.922Z,2.50
2022-08-09T20:21:40.722Z,2.70
2022-08-09T20:23:23.659Z,2.60
2022-08-09T20:24:57.149Z,2.90
2022-08-09T20:26:30.393Z,2.60
2022-08-09T20:28:03.757Z,2.67
2022-08-09T20:29:39.158Z,3.15
2022-08-09T20:31:13.758Z,2.80
2022-08-09T20:32:48.816Z,2.88
2022-08-09T20:34:25.702Z,2.80
2022-08-09T20:38:19.729Z,3.05
2022-08-09T20:40:13.798Z,2.63
2022-08-09T20:41:20.721Z,3.05
2022-08-09T20:43:19.012Z,2.70
2022-08-09T20:45:57.365Z,3.10
2022-08-09T20:46:51.505Z,2.80
2022-08-09T20:48:24.902Z,2.78
2022-08-09T20:50:02.168Z,2.88
2022-08-09T20:51:41.088Z,2.30
2022-08-09T20:53:35.534Z,2.60
2022-08-09T20:55:12.355Z,2.67
2022-08-09T20:56:49.631Z,2.80
2022-08-09T20:58:27.536Z,2.80
2022-08-09T21:00:22.229Z,2.78
2022-08-09T21:02:01.964Z,2.60
2022-08-09T21:03:39.469Z,2.72
2022-08-09T21:05:52.969Z,2.60
2022-08-09T21:07:21.124Z,2.83
2022-08-09T21:09:05.321Z,3.28
2022-08-09T21:10:46.812Z,2.95
2022-08-09T21:14:21.243Z,2.90
2022-08-09T21:15:55.944Z,3.10
2022-08-09T21:18:23.759Z,2.97
2022-08-09T21:20:16.946Z,2.55
2022-08-09T21:21:20.322Z,2.70
2022-08-09T21:22:54.515Z,2.75
2022-08-09T21:24:32.675Z,2.72
2022-08-09T21:26:06.418Z,2.50
2022-08-09T21:27:51.298Z,2.80
2022-08-09T21:29:25.933Z,2.45
2022-08-09T21:30:59.932Z,2.83
2022-08-09T21:32:35.606Z,3.00
2022-08-09T21:34:08.892Z,2.88
2022-08-09T21:35:51.172Z,2.83
2022-08-09T21:37:25.784Z,2.95
2022-08-09T21:39:09.574Z,2.85
2022-08-09T21:40:52.143Z,3.05
2022-08-09T21:42:28.482Z,3.00
2022-08-09T21:44:02.075Z,2.85
2022-08-09T21:45:39.092Z,2.53
2022-08-09T21:47:17.681Z,3.10
2022-08-09T21:48:51.864Z,2.97
2022-08-09T21:50:35.963Z,2.83
2022-08-09T21:52:17.628Z,2.60
2022-08-09T21:53:54.326Z,2.70
2022-08-09T21:55:27.761Z,2.17
2022-08-09T21:57:05.886Z,2.47
2022-08-09T21:58:39.025Z,2.50
2022-08-09T22:00:25.217Z,2.78
2022-08-09T22:02:01.028Z,2.53
2022-08-09T22:03:34.515Z,2.60
2022-08-09T22:05:23.363Z,2.58
2022-08-09T22:06:59.326Z,2.60
2022-08-09T22:08:35.210Z,2.83
2022-08-09T22:10:12.923Z,2.58
2022-08-09T22:12:17.797Z,2.50
2022-08-09T22:13:51.285Z,2.38
2022-08-09T22:15:34.665Z,2.40
2022-08-09T22:17:08.916Z,2.47
2022-08-09T22:18:53.758Z,2.55
2022-08-09T22:20:28.138Z,2.63
2022-08-09T22:22:05.003Z,2.20
2022-08-09T22:23:58.599Z,2.75
2022-08-09T22:26:08.561Z,2.58
2022-08-09T22:27:26.247Z,2.38
2022-08-09T22:29:07.103Z,2.53
2022-08-09T22:30:41.801Z,2.70
2022-08-09T22:32:29.531Z,2.70
2022-08-09T22:34:09.799Z,2.80
2022-08-09T22:36:01.573Z,2.75
2022-08-09T22:37:40.404Z,2.90
2022-08-09T22:39:47.110Z,2.80
2022-08-09T22:41:08.710Z,3.03
2022-08-09T22:42:46.149Z,2.80
2022-08-09T22:44:21.975Z,2.60
2022-08-09T22:48:12.887Z,2.60
2022-08-09T22:48:15.364Z,2.78
2022-08-09T22:49:42.155Z,2.78
2022-08-09T22:51:17.916Z,2.55
2022-08-09T22:52:58.252Z,2.72
2022-08-09T22:54:31.738Z,2.63
2022-08-09T22:56:29.712Z,3.00
2022-08-09T22:57:59.785Z,2.97
2022-08-09T22:59:55.885Z,2.72
2022-08-09T23:01:27.788Z,2.53
2022-08-09T23:03:01.302Z,3.10
2022-08-09T23:04:38.134Z,2.80
2022-08-09T23:06:14.065Z,2.67
2022-08-09T23:08:22.826Z,2.70
2022-08-09T23:10:02.203Z,2.80
2022-08-09T23:11:35.281Z,3.03
2022-08-09T23:14:48.184Z,2.90
2022-08-09T23:16:27.152Z,2.50